createdAt,value
2022-08-22T00:01:03.278Z,16.81
2022-08-22T00:02:43.020Z,20.41
2022-08-22T00:03:03.715Z,20.86
2022-08-22T00:03:12.287Z,16.83
2022-08-22T00:04:24.491Z,16.83
2022-08-22T00:07:38.358Z,16.83
2022-08-22T00:10:58.025Z,16.83
2022-08-22T00:14:24.455Z,16.84
2022-08-22T00:17:49.337Z,16.84
2022-08-22T00:21:15.996Z,16.84
2022-08-22T00:24:41.751Z,16.83
2022-08-22T00:27:59.447Z,16.82
2022-08-22T00:31:29.074Z,16.82
2022-08-22T00:34:40.052Z,16.79
2022-08-22T00:37:47.467Z,16.75
2022-08-22T00:41:16.640Z,16.70
2022-08-22T00:44:57.252Z,16.65
2022-08-22T00:48:32.270Z,16.62
2022-08-22T00:51:58.692Z,16.55
2022-08-22T00:55:37.750Z,16.45
2022-08-22T00:58:39.284Z,16.35
2022-08-22T01:01:57.402Z,16.29
2022-08-22T01:05:17.265Z,16.27
2022-08-22T01:08:39.616Z,16.26
2022-08-22T01:12:15.886Z,16.26
2022-08-22T01:15:26.164Z,16.24
2022-08-22T01:19:01.638Z,16.21
2022-08-22T01:22:21.990Z,16.17
2022-08-22T01:25:35.477Z,16.12
2022-08-22T01:29:14.909Z,16.08
2022-08-22T01:32:28.379Z,16.02
2022-08-22T01:35:35.969Z,15.99
2022-08-22T01:38:53.412Z,15.95
2022-08-22T01:42:15.220Z,15.88
2022-08-22T01:45:23.221Z,15.79
2022-08-22T01:48:33.916Z,15.73
2022-08-22T01:51:47.521Z,15.66
2022-08-22T01:54:56.505Z,15.62
2022-08-22T01:58:03.743Z,15.60
2022-08-22T02:01:34.729Z,15.55
2022-08-22T02:04:36.257Z,15.48
2022-08-22T02:08:15.029Z,15.40
2022-08-22T02:11:37.818Z,15.35
2022-08-22T02:15:12.842Z,15.30
2022-08-22T02:18:24.678Z,15.24
2022-08-22T02:21:40.648Z,15.16
2022-08-22T02:24:51.080Z,15.11
2022-08-22T02:28:00.520Z,15.10
2022-08-22T02:31:10.285Z,15.09
2022-08-22T02:34:40.080Z,15.04
2022-08-22T02:38:09.377Z,14.99
2022-08-22T02:41:27.173Z,14.96
2022-08-22T02:44:40.492Z,14.94
2022-08-22T02:47:55.945Z,14.91
2022-08-22T02:51:19.908Z,14.88
2022-08-22T02:55:14.224Z,14.82
2022-08-22T02:58:27.423Z,14.75
2022-08-22T03:01:32.102Z,14.71
2022-08-22T03:04:34.172Z,14.68
2022-08-22T03:07:50.327Z,14.66
2022-08-22T03:10:57.838Z,14.63
2022-08-22T03:14:18.176Z,14.58
2022-08-22T03:17:28.773Z,14.54
2022-08-22T03:20:44.213Z,14.49
2022-08-22T03:23:52.889Z,14.45
2022-08-22T03:27:15.281Z,14.44
2022-08-22T03:30:43.266Z,14.44
2022-08-22T03:33:45.590Z,14.45
2022-08-22T03:36:59.265Z,14.47
2022-08-22T03:40:21.354Z,14.44
2022-08-22T03:43:56.360Z,14.38
2022-08-22T03:47:13.288Z,14.36
2022-08-22T03:50:46.786Z,14.36
2022-08-22T03:54:30.399Z,14.40
2022-08-22T03:57:32.257Z,14.37
2022-08-22T04:00:59.784Z,14.33
2022-08-22T04:04:10.508Z,14.32
2022-08-22T04:07:31.626Z,14.29
2022-08-22T04:10:58.264Z,14.23
2022-08-22T04:14:55.326Z,14.25
2022-08-22T04:18:35.028Z,14.27
2022-08-22T04:22:12.175Z,14.27
2022-08-22T04:25:40.730Z,14.31
2022-08-22T04:28:44.729Z,14.34
2022-08-22T04:32:09.776Z,14.36
2022-08-22T04:35:59.810Z,14.39
2022-08-22T04:39:18.566Z,14.41
2022-08-22T04:42:36.714Z,14.44
2022-08-22T04:46:03.232Z,14.45
2022-08-22T04:49:16.808Z,14.47
2022-08-22T04:52:33.347Z,14.48
2022-08-22T04:55:47.103Z,14.49
2022-08-22T04:58:56.892Z,14.52
2022-08-22T05:02:06.210Z,14.55
2022-08-22T05:05:19.439Z,14.57
2022-08-22T05:08:27.092Z,14.59
2022-08-22T05:11:31.541Z,14.62
2022-08-22T05:14:35.913Z,14.64
2022-08-22T05:17:39.696Z,14.67
2022-08-22T05:20:48.068Z,14.70
2022-08-22T05:24:05.185Z,14.71
2022-08-22T05:27:18.851Z,14.72
2022-08-22T05:30:25.246Z,14.73
2022-08-22T05:33:32.825Z,14.76
2022-08-22T05:36:43.467Z,14.78
2022-08-22T05:39:49.127Z,14.81
2022-08-22T05:42:52.366Z,14.84
2022-08-22T05:45:58.149Z,14.98
2022-08-22T05:49:03.896Z,15.23
2022-08-22T05:52:11.597Z,15.50
2022-08-22T05:55:24.909Z,15.65
2022-08-22T05:58:48.021Z,15.74
2022-08-22T06:02:06.121Z,15.83
2022-08-22T06:05:12.016Z,15.89
2022-08-22T06:08:32.340Z,15.94
2022-08-22T06:11:51.555Z,16.03
2022-08-22T06:14:59.749Z,16.09
2022-08-22T06:18:05.850Z,16.18
2022-08-22T06:21:39.317Z,16.28
2022-08-22T06:24:41.645Z,16.36
2022-08-22T06:27:46.294Z,16.46
2022-08-22T06:30:50.994Z,16.53
2022-08-22T06:34:13.769Z,16.60
2022-08-22T06:37:26.443Z,16.65
2022-08-22T06:40:29.632Z,16.69
2022-08-22T06:43:38.681Z,16.74
2022-08-22T06:46:41.396Z,16.78
2022-08-22T06:49:45.605Z,16.82
2022-08-22T06:52:53.760Z,16.87
2022-08-22T06:56:06.029Z,16.93
2022-08-22T06:59:31.943Z,17.01
2022-08-22T07:02:40.713Z,17.05
2022-08-22T07:05:43.347Z,17.08
2022-08-22T07:08:45.910Z,17.09
2022-08-22T07:11:48.339Z,17.13
2022-08-22T07:14:53.761Z,17.17
2022-08-22T07:18:00.128Z,17.18
2022-08-22T07:21:04.597Z,17.23
2022-08-22T07:24:07.671Z,17.27
2022-08-22T07:27:15.941Z,17.30
2022-08-22T07:30:27.475Z,17.38
2022-08-22T07:33:49.911Z,17.50
2022-08-22T07:37:03.416Z,17.58
2022-08-22T07:40:46.860Z,17.65
2022-08-22T07:44:07.385Z,17.64
2022-08-22T07:47:17.931Z,17.67
2022-08-22T07:50:31.258Z,17.72
2022-08-22T07:53:43.726Z,17.77
2022-08-22T07:56:56.524Z,17.80
2022-08-22T08:00:00.618Z,17.85
2022-08-22T08:03:06.703Z,17.88
2022-08-22T08:06:09.406Z,17.89
2022-08-22T08:09:17.573Z,17.95
2022-08-22T08:12:24.432Z,18.02
2022-08-22T08:15:26.474Z,18.11
2022-08-22T08:18:32.148Z,18.24
2022-08-22T08:21:36.138Z,18.40
2022-08-22T08:24:44.777Z,18.53
2022-08-22T08:28:06.218Z,18.59
2022-08-22T08:31:20.577Z,18.66
2022-08-22T08:34:25.836Z,18.75
2022-08-22T08:37:41.453Z,18.85
2022-08-22T08:41:14.177Z,18.97
2022-08-22T08:44:22.658Z,19.09
2022-08-22T08:47:36.081Z,19.14
2022-08-22T08:50:57.496Z,19.16
2022-08-22T08:54:31.337Z,19.24
2022-08-22T08:58:10.252Z,19.32
2022-08-22T09:01:20.933Z,19.37
2022-08-22T09:04:48.889Z,19.42
2022-08-22T09:08:11.828Z,19.45
2022-08-22T09:11:14.387Z,19.49
2022-08-22T09:14:44.400Z,19.52
2022-08-22T09:18:18.388Z,19.54
2022-08-22T09:21:31.336Z,19.56
2022-08-22T09:24:56.058Z,19.60
2022-08-22T09:28:06.650Z,19.61
2022-08-22T09:31:47.376Z,19.68
2022-08-22T09:35:16.181Z,19.78
2022-08-22T09:38:36.363Z,19.94
2022-08-22T09:41:55.999Z,20.09
2022-08-22T09:45:16.025Z,20.24
2022-08-22T09:48:47.238Z,20.39
2022-08-22T09:52:05.267Z,20.48
2022-08-22T09:55:45.321Z,20.71
2022-08-22T09:59:05.243Z,20.97
2022-08-22T10:02:15.439Z,21.13
2022-08-22T10:05:40.544Z,21.20
2022-08-22T10:09:01.528Z,21.28
2022-08-22T10:12:12.452Z,21.39
2022-08-22T10:15:20.218Z,21.49
2022-08-22T10:18:21.895Z,21.62
2022-08-22T10:21:39.694Z,21.67
2022-08-22T10:24:53.429Z,21.73
2022-08-22T10:28:19.708Z,21.89
2022-08-22T10:31:35.196Z,22.07
2022-08-22T10:34:52.077Z,22.18
2022-08-22T10:38:01.205Z,22.28
2022-08-22T10:41:14.310Z,22.42
2022-08-22T10:44:21.885Z,22.39
2022-08-22T10:47:31.225Z,22.36
2022-08-22T10:50:44.910Z,22.37
2022-08-22T10:54:20.573Z,22.41
2022-08-22T10:57:53.760Z,22.34
2022-08-22T11:01:01.450Z,22.27
2022-08-22T11:04:28.700Z,22.21
2022-08-22T11:07:56.012Z,22.26
2022-08-22T11:10:57.718Z,22.30
2022-08-22T11:14:41.887Z,22.35
2022-08-22T11:18:04.666Z,22.31
2022-08-22T11:21:16.220Z,22.27
2022-08-22T11:24:55.743Z,22.27
2022-08-22T11:28:23.172Z,22.28
2022-08-22T11:31:51.541Z,22.35
2022-08-22T11:35:04.817Z,22.37
2022-08-22T11:38:20.351Z,22.38
2022-08-22T11:41:32.557Z,22.41
2022-08-22T11:44:50.936Z,22.46
2022-08-22T11:48:15.425Z,22.54
2022-08-22T11:51:38.400Z,22.53
2022-08-22T11:55:07.241Z,22.60
2022-08-22T11:58:19.983Z,22.69
2022-08-22T12:01:49.626Z,22.72
2022-08-22T12:04:57.944Z,22.71
2022-08-22T12:08:11.614Z,22.68
2022-08-22T12:11:41.143Z,22.70
2022-08-22T12:14:58.219Z,22.73
2022-08-22T12:18:21.723Z,22.80
2022-08-22T12:21:52.980Z,22.80
2022-08-22T12:25:07.722Z,22.78
2022-08-22T12:28:31.448Z,22.77
2022-08-22T12:32:04.497Z,22.77
2022-08-22T12:35:29.823Z,22.80
2022-08-22T12:38:49.954Z,22.84
2022-08-22T12:42:06.288Z,22.85
2022-08-22T12:45:26.292Z,22.80
2022-08-22T12:49:01.984Z,22.82
2022-08-22T12:52:12.497Z,22.85
2022-08-22T12:55:37.987Z,22.87
2022-08-22T12:59:07.974Z,22.87
2022-08-22T13:02:27.944Z,22.91
2022-08-22T13:05:34.311Z,22.93
2022-08-22T13:08:45.890Z,23.03
2022-08-22T13:11:51.400Z,23.12
2022-08-22T13:14:58.837Z,23.10
2022-08-22T13:18:25.127Z,23.09
2022-08-22T13:21:35.987Z,23.13
2022-08-22T13:24:55.408Z,23.19
2022-08-22T13:28:01.363Z,23.29
2022-08-22T13:31:05.358Z,23.39
2022-08-22T13:34:12.982Z,23.47
2022-08-22T13:37:37.527Z,23.46
2022-08-22T13:40:46.459Z,23.43
2022-08-22T13:44:07.012Z,23.40
2022-08-22T13:47:14.813Z,23.35
2022-08-22T13:50:28.032Z,23.31
2022-08-22T13:53:50.429Z,23.32
2022-08-22T13:57:38.477Z,23.30
2022-08-22T14:00:48.694Z,23.28
2022-08-22T14:04:17.766Z,23.21
2022-08-22T14:07:39.084Z,23.18
2022-08-22T14:11:21.572Z,23.23
2022-08-22T14:14:30.207Z,23.32
2022-08-22T14:17:42.881Z,23.39
2022-08-22T14:20:46.277Z,23.44
2022-08-22T14:23:55.169Z,23.44
2022-08-22T14:27:09.424Z,23.42
2022-08-22T14:30:20.392Z,23.43
2022-08-22T14:33:25.922Z,23.43
2022-08-22T14:36:35.818Z,23.41
2022-08-22T14:39:46.221Z,23.37
2022-08-22T14:42:52.940Z,23.30
2022-08-22T14:46:06.541Z,23.23
2022-08-22T14:49:20.301Z,23.15
2022-08-22T14:52:51.925Z,23.10
2022-08-22T14:56:22.322Z,23.08
2022-08-22T14:59:44.284Z,23.08
2022-08-22T15:02:46.039Z,23.09
2022-08-22T15:06:01.470Z,23.17
2022-08-22T15:09:11.809Z,23.22
2022-08-22T15:12:25.916Z,23.32
2022-08-22T15:15:52.783Z,23.41
2022-08-22T15:18:55.932Z,23.46
2022-08-22T15:22:20.737Z,23.53
2022-08-22T15:25:36.418Z,23.56
2022-08-22T15:28:53.337Z,23.55
2022-08-22T15:32:00.292Z,23.49
2022-08-22T15:35:07.952Z,23.41
2022-08-22T15:38:32.907Z,23.35
2022-08-22T15:41:44.159Z,23.30
2022-08-22T15:44:47.503Z,23.28
2022-08-22T15:47:53.347Z,23.30
2022-08-22T15:51:10.449Z,23.34
2022-08-22T15:54:25.303Z,23.31
2022-08-22T15:57:32.062Z,23.32
2022-08-22T16:00:44.826Z,23.32
2022-08-22T16:03:58.681Z,23.33
2022-08-22T16:07:01.613Z,23.34
2022-08-22T16:10:21.895Z,23.34
2022-08-22T16:13:26.704Z,23.30
2022-08-22T16:16:53.725Z,23.26
2022-08-22T16:20:19.479Z,23.24
2022-08-22T16:23:22.704Z,23.18
2022-08-22T16:26:24.406Z,23.15
2022-08-22T16:29:28.885Z,23.12
2022-08-22T16:32:31.129Z,23.11
2022-08-22T16:36:18.150Z,23.08
2022-08-22T16:39:22.446Z,23.04
2022-08-22T16:42:36.348Z,23.01
2022-08-22T16:45:44.692Z,22.97
2022-08-22T16:48:47.171Z,22.93
2022-08-22T16:52:26.809Z,22.88
2022-08-22T16:55:31.518Z,22.82
2022-08-22T16:58:55.904Z,22.80
2022-08-22T17:02:24.737Z,22.77
2022-08-22T17:06:24.036Z,22.75
2022-08-22T17:09:48.164Z,22.74
2022-08-22T17:12:55.473Z,22.78
2022-08-22T17:16:05.949Z,22.80
2022-08-22T17:19:28.310Z,22.81
2022-08-22T17:22:40.836Z,22.81
2022-08-22T17:26:10.189Z,22.84
2022-08-22T17:29:14.758Z,22.83
2022-08-22T17:32:59.901Z,22.87
2022-08-22T17:36:26.584Z,22.83
2022-08-22T17:39:55.853Z,22.78
2022-08-22T17:43:17.675Z,22.73
2022-08-22T17:46:57.888Z,22.66
2022-08-22T17:50:22.717Z,22.57
2022-08-22T17:53:47.556Z,22.50
2022-08-22T17:57:05.401Z,22.44
2022-08-22T18:00:26.184Z,22.37
2022-08-22T18:03:32.452Z,22.34
2022-08-22T18:06:38.831Z,22.30
2022-08-22T18:10:05.863Z,22.24
2022-08-22T18:13:30.939Z,22.23
2022-08-22T18:16:46.478Z,22.21
2022-08-22T18:20:17.295Z,22.21
2022-08-22T18:23:35.667Z,22.18
2022-08-22T18:26:41.588Z,22.14
2022-08-22T18:29:52.686Z,22.14
2022-08-22T18:33:07.505Z,22.12
2022-08-22T18:36:20.307Z,22.11
2022-08-22T18:39:29.287Z,22.12
2022-08-22T18:42:41.927Z,22.11
2022-08-22T18:45:46.349Z,22.08
2022-08-22T18:49:13.619Z,22.06
2022-08-22T18:52:09.838Z,22.04
2022-08-22T18:55:50.452Z,22.01
2022-08-22T18:59:29.704Z,21.96
2022-08-22T19:02:55.920Z,21.93
2022-08-22T19:06:22.433Z,21.91
2022-08-22T19:09:34.897Z,21.89
2022-08-22T19:13:07.422Z,21.86
2022-08-22T19:16:22.157Z,21.82
2022-08-22T19:20:14.889Z,21.80
2022-08-22T19:23:32.787Z,21.77
2022-08-22T19:26:43.357Z,21.75
2022-08-22T19:29:44.919Z,21.70
2022-08-22T19:32:46.601Z,21.65
2022-08-22T19:35:51.050Z,21.59
2022-08-22T19:38:57.672Z,21.49
2022-08-22T19:41:59.789Z,21.38
2022-08-22T19:45:08.345Z,21.27
2022-08-22T19:48:14.370Z,21.22
2022-08-22T19:51:19.071Z,21.19
2022-08-22T19:54:24.764Z,21.14
2022-08-22T19:58:04.012Z,21.06
2022-08-22T20:01:48.708Z,20.97
2022-08-22T20:05:28.870Z,20.92
2022-08-22T20:08:47.936Z,20.88
2022-08-22T20:11:59.255Z,20.84
2022-08-22T20:15:22.415Z,20.81
2022-08-22T20:19:02.237Z,20.79
2022-08-22T20:22:11.659Z,20.77
2022-08-22T20:25:41.470Z,20.74
2022-08-22T20:28:50.775Z,20.69
2022-08-22T20:31:58.162Z,20.66
2022-08-22T20:35:02.737Z,20.61
2022-08-22T20:38:09.990Z,20.56
2022-08-22T20:41:18.582Z,20.51
2022-08-22T20:44:25.176Z,20.43
2022-08-22T20:47:34.098Z,20.36
2022-08-22T20:50:43.677Z,20.31
2022-08-22T20:53:58.552Z,20.22
2022-08-22T20:57:01.984Z,20.13
2022-08-22T21:00:12.302Z,20.05
2022-08-22T21:03:38.731Z,19.95
2022-08-22T21:06:40.361Z,19.87
2022-08-22T21:10:00.409Z,19.82
2022-08-22T21:13:06.365Z,19.77
2022-08-22T21:16:14.369Z,19.73
2022-08-22T21:19:18.264Z,19.70
2022-08-22T21:22:31.379Z,19.66
2022-08-22T21:25:45.970Z,19.65
2022-08-22T21:29:07.495Z,19.60
2022-08-22T21:32:31.540Z,19.58
2022-08-22T21:35:33.642Z,19.55
2022-08-22T21:38:35.307Z,19.52
2022-08-22T21:41:42.972Z,19.49
2022-08-22T21:44:56.900Z,19.48
2022-08-22T21:47:59.220Z,19.46
2022-08-22T21:51:38.698Z,19.45
2022-08-22T21:54:40.331Z,19.39
2022-08-22T21:57:42.847Z,19.36
2022-08-22T22:01:01.205Z,19.33
2022-08-22T22:04:03.421Z,19.30
2022-08-22T22:07:05.180Z,19.27
2022-08-22T22:10:10.371Z,19.24
2022-08-22T22:13:12.368Z,19.20
2022-08-22T22:16:22.649Z,19.29
2022-08-22T22:19:24.249Z,19.20
2022-08-22T22:22:25.898Z,19.14
2022-08-22T22:25:38.805Z,19.08
2022-08-22T22:28:48.997Z,19.02
2022-08-22T22:31:51.084Z,18.91
2022-08-22T22:34:52.969Z,18.84
2022-08-22T22:37:56.059Z,18.78
2022-08-22T22:40:57.868Z,18.71
2022-08-22T22:44:01.315Z,18.64
2022-08-22T22:47:03.660Z,18.59
2022-08-22T22:50:07.348Z,18.53
2022-08-22T22:53:09.477Z,18.48
2022-08-22T22:56:15.875Z,18.42
2022-08-22T22:59:17.922Z,18.36
2022-08-22T23:02:26.266Z,18.31
2022-08-22T23:05:29.898Z,18.27
2022-08-22T23:08:31.482Z,18.23
2022-08-22T23:11:33.207Z,18.20
2022-08-22T23:14:35.694Z,18.17
2022-08-22T23:17:37.717Z,18.13
2022-08-22T23:20:39.331Z,18.10
2022-08-22T23:23:42.005Z,18.07
2022-08-22T23:26:44.261Z,18.05
2022-08-22T23:29:46.142Z,18.05
2022-08-22T23:32:47.877Z,18.04
2022-08-22T23:35:49.441Z,18.02
2022-08-22T23:38:52.417Z,17.99
2022-08-22T23:41:54.469Z,17.98
2022-08-22T23:44:56.057Z,17.99
2022-08-22T23:47:57.812Z,17.97
2022-08-22T23:50:59.404Z,17.94
2022-08-22T23:54:01.377Z,17.92
2022-08-22T23:57:11.910Z,17.90
